createdAt,value
2022-08-16T00:00:38.604Z,96427.00
2022-08-16T00:05:48.310Z,96431.00
2022-08-16T00:10:50.463Z,96422.00
2022-08-16T00:15:54.312Z,96419.00
2022-08-16T00:20:55.599Z,96430.00
2022-08-16T00:26:13.608Z,96434.00
2022-08-16T00:31:59.623Z,96423.00
2022-08-16T00:37:03.562Z,96419.00
2022-08-16T00:42:05.314Z,96419.00
2022-08-16T00:47:16.181Z,96420.00
2022-08-16T00:52:30.273Z,96415.00
2022-08-16T00:57:59.067Z,96420.00
2022-08-16T01:03:07.353Z,96426.00
2022-08-16T01:08:35.388Z,96429.00
2022-08-16T01:13:39.274Z,96421.00
2022-08-16T01:18:44.458Z,96426.00
2022-08-16T01:24:02.497Z,96423.00
2022-08-16T01:29:09.934Z,96425.00
2022-08-16T01:34:24.882Z,96431.00
2022-08-16T01:39:28.634Z,96430.00
2022-08-16T01:44:37.271Z,96420.00
2022-08-16T01:49:45.703Z,96424.00
2022-08-16T01:55:53.976Z,96421.00
2022-08-16T02:00:57.226Z,96435.00
2022-08-16T02:05:59.008Z,96427.00
2022-08-16T02:11:07.871Z,96433.00
2022-08-16T02:16:18.839Z,96421.00
2022-08-16T02:21:31.544Z,96422.00
2022-08-16T02:26:34.240Z,96421.00
2022-08-16T02:32:03.157Z,96418.00
2022-08-16T02:37:05.165Z,96418.00
2022-08-16T02:42:07.790Z,96420.00
2022-08-16T02:47:09.247Z,96413.00
2022-08-16T02:52:11.404Z,96419.00
2022-08-16T02:57:27.019Z,96421.00
2022-08-16T03:02:32.045Z,96413.00
2022-08-16T03:07:37.085Z,96410.00
2022-08-16T03:12:55.269Z,96411.00
2022-08-16T03:17:58.037Z,96414.00
2022-08-16T03:23:01.863Z,96412.00
2022-08-16T03:28:05.217Z,96405.00
2022-08-16T03:33:08.926Z,96410.00
2022-08-16T03:38:34.243Z,96416.00
2022-08-16T03:43:51.411Z,96420.00
2022-08-16T03:48:54.948Z,96417.00
2022-08-16T03:54:00.900Z,96426.00
2022-08-16T03:59:02.870Z,96421.00
2022-08-16T04:04:09.654Z,96413.00
2022-08-16T04:09:19.606Z,96416.00
2022-08-16T04:14:32.770Z,96417.00
2022-08-16T04:19:35.962Z,96423.00
2022-08-16T04:24:36.961Z,96421.00
2022-08-16T04:29:43.939Z,96416.00
2022-08-16T04:34:48.238Z,96420.00
2022-08-16T04:39:55.820Z,96426.00
2022-08-16T04:44:58.713Z,96428.00
2022-08-16T04:50:15.652Z,96432.00
2022-08-16T04:55:37.870Z,96432.00
2022-08-16T05:00:39.798Z,96441.00
2022-08-16T05:05:59.184Z,96442.00
2022-08-16T05:11:09.347Z,96443.00
2022-08-16T05:16:16.472Z,96454.00
2022-08-16T05:21:22.353Z,96453.00
2022-08-16T05:26:29.555Z,96454.00
2022-08-16T05:31:31.010Z,96456.00
2022-08-16T05:36:36.708Z,96449.00
2022-08-16T05:41:45.119Z,96472.00
2022-08-16T05:46:47.758Z,96471.00
2022-08-16T05:51:56.235Z,96472.00
2022-08-16T05:56:57.831Z,96476.00
2022-08-16T06:02:06.159Z,96486.00
2022-08-16T06:07:09.702Z,96493.00
2022-08-16T06:12:31.136Z,96498.00
2022-08-16T06:17:41.462Z,96499.00
2022-08-16T06:22:47.590Z,96505.00
2022-08-16T06:28:01.160Z,96491.00
2022-08-16T06:33:12.324Z,96501.00
2022-08-16T06:38:32.825Z,96505.00
2022-08-16T06:43:39.649Z,96505.00
2022-08-16T06:48:51.151Z,96495.00
2022-08-16T06:53:53.727Z,96495.00
2022-08-16T06:58:56.834Z,96502.00
2022-08-16T07:04:01.244Z,96505.00
2022-08-16T07:09:09.792Z,96506.00
2022-08-16T07:14:24.953Z,96514.00
2022-08-16T07:20:01.587Z,96520.00
2022-08-16T07:25:14.610Z,96508.00
2022-08-16T07:30:39.320Z,96494.00
2022-08-16T07:35:55.727Z,96490.00
2022-08-16T07:41:01.604Z,96498.00
2022-08-16T07:46:05.017Z,96504.00
2022-08-16T07:51:43.143Z,96506.00
2022-08-16T07:56:45.229Z,96509.00
2022-08-16T08:01:46.290Z,96518.00
2022-08-16T08:06:50.966Z,96520.00
2022-08-16T08:12:00.748Z,96524.00
2022-08-16T08:17:06.744Z,96524.00
2022-08-16T08:22:10.176Z,96521.00
2022-08-16T08:27:26.816Z,96526.00
2022-08-16T08:32:57.478Z,96529.00
2022-08-16T08:38:08.399Z,96540.00
2022-08-16T08:43:17.931Z,96547.00
2022-08-16T08:48:33.791Z,96549.00
2022-08-16T08:53:37.885Z,96547.00
2022-08-16T08:58:39.771Z,96545.00
2022-08-16T09:04:06.191Z,96556.00
2022-08-16T09:09:08.938Z,96557.00
2022-08-16T09:14:24.265Z,96559.00
2022-08-16T09:19:33.034Z,96561.00
2022-08-16T09:24:51.770Z,96564.00
2022-08-16T09:30:00.083Z,96569.00
2022-08-16T09:35:05.106Z,96568.00
2022-08-16T09:40:31.646Z,96572.00
2022-08-16T09:45:38.285Z,96578.00
2022-08-16T09:50:42.535Z,96575.00
2022-08-16T09:55:49.448Z,96569.00
2022-08-16T10:00:52.505Z,96558.00
2022-08-16T10:05:53.338Z,96575.00
2022-08-16T10:11:13.112Z,96569.00
2022-08-16T10:21:16.139Z,96566.00
2022-08-16T10:27:16.797Z,96569.00
2022-08-16T10:32:23.587Z,96556.00
2022-08-16T10:37:35.697Z,96561.00
2022-08-16T10:42:37.662Z,96556.00
2022-08-16T10:47:41.874Z,96566.00
2022-08-16T10:52:44.384Z,96565.00
2022-08-16T10:57:54.154Z,96559.00
2022-08-16T11:03:00.730Z,96574.00
2022-08-16T11:08:06.981Z,96576.00
2022-08-16T11:19:03.130Z,96571.00
2022-08-16T11:24:40.169Z,96579.00
2022-08-16T11:29:44.680Z,96575.00
2022-08-16T11:35:10.952Z,96583.00
2022-08-16T11:40:32.363Z,96574.00
2022-08-16T11:45:35.347Z,96569.00
2022-08-16T11:50:38.075Z,96573.00
2022-08-16T11:55:39.291Z,96575.00
2022-08-16T12:00:51.696Z,96573.00
2022-08-16T12:05:54.482Z,96570.00
2022-08-16T12:10:59.219Z,96579.00
2022-08-16T12:16:01.542Z,96584.00
2022-08-16T12:21:03.851Z,96582.00
2022-08-16T12:26:10.427Z,96574.00
2022-08-16T12:31:12.048Z,96571.00
2022-08-16T12:36:13.371Z,96573.00
2022-08-16T12:41:14.939Z,96572.00
2022-08-16T12:46:25.917Z,96565.00
2022-08-16T12:51:57.951Z,96563.00
2022-08-16T12:57:01.272Z,96565.00
2022-08-16T13:02:04.459Z,96565.00
2022-08-16T13:07:08.444Z,96563.00
2022-08-16T13:12:23.401Z,96556.00
2022-08-16T13:17:29.517Z,96558.00
2022-08-16T13:22:30.970Z,96553.00
2022-08-16T13:28:01.589Z,96547.00
2022-08-16T13:33:12.283Z,96548.00
2022-08-16T13:38:24.287Z,96545.00
2022-08-16T13:43:27.776Z,96540.00
2022-08-16T13:48:43.019Z,96546.00
2022-08-16T13:53:54.506Z,96538.00
2022-08-16T13:59:01.988Z,96537.00
2022-08-16T14:04:04.581Z,96536.00
2022-08-16T14:09:06.706Z,96538.00
2022-08-16T14:14:08.054Z,96530.00
2022-08-16T14:19:17.591Z,96537.00
2022-08-16T14:24:30.031Z,96536.00
2022-08-16T14:29:32.126Z,96540.00
2022-08-16T14:34:36.161Z,96530.00
2022-08-16T14:39:39.431Z,96537.00
2022-08-16T14:44:41.230Z,96528.00
2022-08-16T14:49:43.307Z,96516.00
2022-08-16T14:54:45.010Z,96534.00
2022-08-16T14:59:46.195Z,96530.00
2022-08-16T15:04:48.465Z,96519.00
2022-08-16T15:10:00.654Z,96521.00
2022-08-16T15:15:13.191Z,96524.00
2022-08-16T15:20:19.096Z,96524.00
2022-08-16T15:25:27.639Z,96521.00
2022-08-16T15:31:00.609Z,96518.00
2022-08-16T15:36:04.611Z,96519.00
2022-08-16T15:41:06.417Z,96525.00
2022-08-16T15:46:35.821Z,96520.00
2022-08-16T15:51:57.469Z,96517.00
2022-08-16T15:57:11.431Z,96520.00
2022-08-16T16:02:13.150Z,96527.00
2022-08-16T16:07:15.642Z,96526.00
2022-08-16T16:12:51.527Z,96524.00
2022-08-16T16:17:56.290Z,96533.00
2022-08-16T16:23:00.156Z,96518.00
2022-08-16T16:28:02.071Z,96525.00
2022-08-16T16:33:03.306Z,96520.00
2022-08-16T16:38:08.138Z,96510.00
2022-08-16T16:43:10.728Z,96524.00
2022-08-16T16:48:15.029Z,96514.00
2022-08-16T16:53:18.879Z,96523.00
2022-08-16T16:58:43.473Z,96532.00
2022-08-16T17:03:44.708Z,96519.00
2022-08-16T17:08:55.124Z,96522.00
2022-08-16T17:13:56.071Z,96510.00
2022-08-16T17:19:17.347Z,96515.00
2022-08-16T17:24:24.504Z,96512.00
2022-08-16T17:29:45.888Z,96514.00
2022-08-16T17:34:50.781Z,96506.00
2022-08-16T17:40:00.844Z,96506.00
2022-08-16T17:45:21.982Z,96511.00
2022-08-16T17:50:23.787Z,96512.00
2022-08-16T17:55:34.006Z,96517.00
2022-08-16T18:00:36.830Z,96514.00
2022-08-16T18:05:38.085Z,96525.00
2022-08-16T18:10:38.960Z,96520.00
2022-08-16T18:15:41.424Z,96521.00
2022-08-16T18:21:01.179Z,96527.00
2022-08-16T18:26:04.836Z,96527.00
2022-08-16T18:31:07.305Z,96518.00
2022-08-16T18:36:20.525Z,96522.00
2022-08-16T18:41:25.554Z,96522.00
2022-08-16T18:46:26.531Z,96524.00
2022-08-16T18:51:27.458Z,96523.00
2022-08-16T18:56:56.155Z,96522.00
2022-08-16T19:02:04.516Z,96530.00
2022-08-16T19:07:06.542Z,96535.00
2022-08-16T19:12:07.958Z,96550.00
2022-08-16T19:17:10.505Z,96548.00
2022-08-16T19:22:11.283Z,96554.00
2022-08-16T19:27:13.257Z,96556.00
2022-08-16T19:32:26.414Z,96559.00
2022-08-16T19:37:27.303Z,96570.00
2022-08-16T19:42:28.850Z,96576.00
2022-08-16T19:47:30.982Z,96579.00
2022-08-16T19:52:32.510Z,96580.00
2022-08-16T19:57:35.080Z,96584.00
2022-08-16T20:02:42.335Z,96583.00
2022-08-16T20:07:43.634Z,96591.00
2022-08-16T20:12:58.331Z,96602.00
2022-08-16T20:18:03.932Z,96609.00
2022-08-16T20:23:25.102Z,96617.00
2022-08-16T20:28:50.989Z,96613.00
2022-08-16T20:33:55.320Z,96613.00
2022-08-16T20:38:57.139Z,96621.00
2022-08-16T20:43:58.123Z,96616.00
2022-08-16T20:49:00.139Z,96628.00
2022-08-16T20:54:01.399Z,96625.00
2022-08-16T20:59:02.502Z,96628.00
2022-08-16T21:04:03.767Z,96629.00
2022-08-16T21:09:04.694Z,96633.00
2022-08-16T21:14:10.129Z,96634.00
2022-08-16T21:19:10.960Z,96632.00
2022-08-16T21:24:12.441Z,96633.00
2022-08-16T21:29:16.257Z,96633.00
2022-08-16T21:34:19.147Z,96630.00
2022-08-16T21:39:19.981Z,96633.00
2022-08-16T21:44:21.140Z,96633.00
2022-08-16T21:49:21.977Z,96624.00
2022-08-16T21:54:23.010Z,96632.00
2022-08-16T21:59:24.033Z,96617.00
2022-08-16T22:04:37.454Z,96613.00
2022-08-16T22:09:39.949Z,96619.00
2022-08-16T22:14:40.773Z,96606.00
2022-08-16T22:19:42.036Z,96600.00
2022-08-16T22:24:42.913Z,96616.00
2022-08-16T22:29:43.882Z,96623.00
2022-08-16T22:34:44.718Z,96616.00
2022-08-16T22:39:45.635Z,96611.00
2022-08-16T22:44:46.817Z,96626.00
2022-08-16T22:49:48.024Z,96628.00
2022-08-16T22:54:49.274Z,96624.00
2022-08-16T22:59:53.016Z,96609.00
2022-08-16T23:04:55.630Z,96618.00
2022-08-16T23:09:56.445Z,96626.00
2022-08-16T23:15:02.027Z,96609.00
2022-08-16T23:20:03.677Z,96605.00
2022-08-16T23:25:05.116Z,96602.00
2022-08-16T23:30:07.304Z,96610.00
2022-08-16T23:35:08.298Z,96604.00
2022-08-16T23:40:13.123Z,96607.00
2022-08-16T23:45:14.585Z,96610.00
2022-08-16T23:50:16.530Z,96615.00
2022-08-16T23:55:17.605Z,96613.00
